createdAt,value
2023-01-25T00:01:00.047Z,2.58
2023-01-25T00:04:37.167Z,2.62
2023-01-25T00:08:14.015Z,2.67
2023-01-25T00:11:51.233Z,2.73
2023-01-25T00:15:28.121Z,2.78
2023-01-25T00:19:11.976Z,2.80
2023-01-25T00:23:02.977Z,2.82
2023-01-25T00:26:54.028Z,2.72
2023-01-25T00:30:44.966Z,2.61
2023-01-25T00:34:36.914Z,2.56
2023-01-25T00:38:27.977Z,2.51
2023-01-25T00:42:19.003Z,2.48
2023-01-25T00:46:10.127Z,2.43
2023-01-25T00:50:01.010Z,2.41
2023-01-25T00:53:52.085Z,2.39
2023-01-25T00:57:42.973Z,2.34
2023-01-25T01:01:34.006Z,2.31
2023-01-25T01:05:24.888Z,2.29
2023-01-25T01:09:15.984Z,2.32
2023-01-25T01:13:10.919Z,2.39
2023-01-25T01:17:01.940Z,2.40
2023-01-25T01:20:45.857Z,2.36
2023-01-25T01:24:38.953Z,2.30
2023-01-25T01:28:29.879Z,2.27
2023-01-25T01:32:20.978Z,2.25
2023-01-25T01:36:11.860Z,2.27
2023-01-25T01:40:02.892Z,2.30
2023-01-25T01:43:53.907Z,2.32
2023-01-25T01:47:44.901Z,2.32
2023-01-25T01:51:35.843Z,2.26
2023-01-25T01:55:28.992Z,2.23
2023-01-25T01:59:19.784Z,2.24
2023-01-25T02:03:11.022Z,2.23
2023-01-25T02:07:01.785Z,2.24
2023-01-25T02:10:52.850Z,2.21
2023-01-25T02:14:43.852Z,2.19
2023-01-25T02:18:37.573Z,2.16
2023-01-25T02:22:29.779Z,2.14
2023-01-25T02:26:20.788Z,2.12
2023-01-25T02:30:11.781Z,2.07
2023-01-25T02:34:02.866Z,2.06
2023-01-25T02:37:55.777Z,2.01
2023-01-25T02:41:46.800Z,1.97
2023-01-25T02:45:37.771Z,1.92
2023-01-25T02:49:28.756Z,1.88
2023-01-25T02:53:19.858Z,1.85
2023-01-25T02:57:10.818Z,1.80
2023-01-25T03:00:54.903Z,1.78
2023-01-25T03:04:31.813Z,1.74
2023-01-25T03:08:08.842Z,1.73
2023-01-25T03:11:45.804Z,1.73
2023-01-25T03:15:23.856Z,1.69
2023-01-25T03:19:01.804Z,1.67
2023-01-25T03:22:52.724Z,1.67
2023-01-25T03:27:03.756Z,1.65
2023-01-25T03:30:58.779Z,1.63
2023-01-25T03:34:50.758Z,1.61
2023-01-25T03:38:41.763Z,1.57
2023-01-25T03:42:32.682Z,1.53
2023-01-25T03:46:23.678Z,1.52
2023-01-25T03:50:14.707Z,1.53
2023-01-25T03:54:05.676Z,1.53
2023-01-25T03:57:57.870Z,1.51
2023-01-25T04:01:41.817Z,1.50
2023-01-25T04:05:18.698Z,1.49
2023-01-25T04:08:56.765Z,1.52
2023-01-25T04:12:34.823Z,1.50
2023-01-25T04:16:12.712Z,1.50
2023-01-25T04:20:20.645Z,1.47
2023-01-25T04:23:57.781Z,1.51
2023-01-25T04:27:34.661Z,1.52
2023-01-25T04:31:13.851Z,1.52
2023-01-25T04:34:56.620Z,1.52
2023-01-25T04:38:33.703Z,1.54
2023-01-25T04:42:17.760Z,1.55
2023-01-25T04:45:48.797Z,1.54
2023-01-25T04:49:35.685Z,1.53
2023-01-25T04:53:05.743Z,1.53
2023-01-25T04:56:42.663Z,1.54
2023-01-25T05:00:19.738Z,1.54
2023-01-25T05:03:56.640Z,1.53
2023-01-25T05:07:42.669Z,1.53
2023-01-25T05:11:19.620Z,1.54
2023-01-25T05:15:05.758Z,1.52
2023-01-25T05:18:48.964Z,1.53
2023-01-25T05:22:46.668Z,1.52
2023-01-25T05:26:55.589Z,1.51
2023-01-25T05:30:52.568Z,1.51
2023-01-25T05:34:44.592Z,1.56
2023-01-25T05:38:35.600Z,1.63
2023-01-25T05:42:26.560Z,1.61
2023-01-25T05:46:10.717Z,1.58
2023-01-25T05:49:47.632Z,1.58
2023-01-25T05:53:30.692Z,1.58
2023-01-25T05:57:07.577Z,1.59
2023-01-25T06:00:44.629Z,1.59
2023-01-25T06:04:24.734Z,1.58
2023-01-25T06:08:01.702Z,1.53
2023-01-25T06:11:57.537Z,1.50
2023-01-25T06:15:34.644Z,1.46
2023-01-25T06:19:43.553Z,1.48
2023-01-25T06:23:33.651Z,1.50
2023-01-25T06:27:10.534Z,1.50
2023-01-25T06:30:47.555Z,1.51
2023-01-25T06:34:24.516Z,1.50
2023-01-25T06:38:01.566Z,1.47
2023-01-25T06:41:38.517Z,1.45
2023-01-25T06:45:15.615Z,1.43
2023-01-25T06:48:52.462Z,1.41
2023-01-25T06:52:43.416Z,1.40
2023-01-25T06:56:34.495Z,1.41
2023-01-25T07:00:11.879Z,1.43
2023-01-25T07:03:35.546Z,1.43
2023-01-25T07:06:59.246Z,1.41
2023-01-25T07:10:22.965Z,1.41
2023-01-25T07:13:46.880Z,1.39
2023-01-25T07:17:10.868Z,1.40
2023-01-25T07:20:34.848Z,1.45
2023-01-25T07:23:58.757Z,1.46
2023-01-25T07:27:22.719Z,1.47
2023-01-25T07:30:46.491Z,1.49
2023-01-25T07:34:10.270Z,1.50
2023-01-25T07:37:34.520Z,1.52
2023-01-25T07:40:58.155Z,1.52
2023-01-25T07:44:21.906Z,1.50
2023-01-25T07:47:48.057Z,1.51
2023-01-25T07:51:12.687Z,1.53
2023-01-25T07:54:36.506Z,1.54
2023-01-25T07:58:00.456Z,1.53
2023-01-25T08:01:24.175Z,1.54
2023-01-25T08:04:47.948Z,1.54
2023-01-25T08:08:13.380Z,1.53
2023-01-25T08:11:37.179Z,1.55
2023-01-25T08:15:00.918Z,1.59
2023-01-25T08:18:25.729Z,1.57
2023-01-25T08:21:49.812Z,1.51
2023-01-25T08:25:14.283Z,1.55
2023-01-25T08:28:37.975Z,1.57
2023-01-25T08:32:04.553Z,1.65
2023-01-25T08:35:28.591Z,1.65
2023-01-25T08:38:52.513Z,1.66
2023-01-25T08:42:16.371Z,1.67
2023-01-25T08:45:40.197Z,1.69
2023-01-25T08:49:04.041Z,1.71
2023-01-25T08:52:27.868Z,1.70
2023-01-25T08:55:51.538Z,1.70
2023-01-25T08:59:15.543Z,1.70
2023-01-25T09:02:39.369Z,1.72
2023-01-25T09:06:03.513Z,1.75
2023-01-25T09:09:30.003Z,1.74
2023-01-25T09:12:53.826Z,1.75
2023-01-25T09:16:17.535Z,1.85
2023-01-25T09:19:42.620Z,1.96
2023-01-25T09:23:06.386Z,2.03
2023-01-25T09:26:31.502Z,2.06
2023-01-25T09:30:02.150Z,2.07
2023-01-25T09:33:27.079Z,2.08
2023-01-25T09:36:50.826Z,2.06
2023-01-25T09:40:14.524Z,2.09
2023-01-25T09:43:38.176Z,2.13
2023-01-25T09:47:02.040Z,2.17
2023-01-25T09:50:25.749Z,2.16
2023-01-25T09:53:49.493Z,2.12
2023-01-25T09:57:13.576Z,2.05
2023-01-25T10:00:37.313Z,2.02
2023-01-25T10:04:01.065Z,2.01
2023-01-25T10:07:24.844Z,2.06
2023-01-25T10:10:48.939Z,2.18
2023-01-25T10:14:12.670Z,2.34
2023-01-25T10:17:36.413Z,2.46
2023-01-25T10:21:00.222Z,2.60
2023-01-25T10:24:23.959Z,2.65
2023-01-25T10:27:47.881Z,2.57
2023-01-25T10:31:11.708Z,2.56
2023-01-25T10:34:43.994Z,2.64
2023-01-25T10:38:14.489Z,2.63
2023-01-25T10:41:38.252Z,2.53
2023-01-25T10:45:01.920Z,2.37
2023-01-25T10:48:29.815Z,2.14
2023-01-25T10:51:53.877Z,2.03
2023-01-25T10:55:17.614Z,1.93
2023-01-25T10:58:41.341Z,1.79
2023-01-25T11:02:05.146Z,1.68
2023-01-25T11:05:28.852Z,1.58
2023-01-25T11:08:52.929Z,1.50
2023-01-25T11:12:16.613Z,1.54
2023-01-25T11:15:40.291Z,1.57
2023-01-25T11:19:04.082Z,1.57
2023-01-25T11:22:28.863Z,1.55
2023-01-25T11:25:52.549Z,1.57
2023-01-25T11:29:16.764Z,1.57
2023-01-25T11:32:40.530Z,1.58
2023-01-25T11:36:04.830Z,1.70
2023-01-25T11:39:28.462Z,1.84
2023-01-25T11:42:52.168Z,1.96
2023-01-25T11:46:15.968Z,1.92
2023-01-25T11:49:41.642Z,1.95
2023-01-25T11:53:05.420Z,1.94
2023-01-25T11:56:29.233Z,1.88
2023-01-25T11:59:54.425Z,1.87
2023-01-25T12:03:18.257Z,1.88
2023-01-25T12:06:42.147Z,1.94
2023-01-25T12:10:05.873Z,2.12
2023-01-25T12:13:29.779Z,2.23
2023-01-25T12:16:53.529Z,2.22
2023-01-25T12:20:17.208Z,2.19
2023-01-25T12:23:40.869Z,2.13
2023-01-25T12:27:04.549Z,2.13
2023-01-25T12:30:30.192Z,2.14
2023-01-25T12:33:54.043Z,2.17
2023-01-25T12:37:18.865Z,2.12
2023-01-25T12:40:42.520Z,2.06
2023-01-25T12:44:06.307Z,2.01
2023-01-25T12:47:30.280Z,2.08
2023-01-25T12:50:54.000Z,2.25
2023-01-25T12:54:17.702Z,2.31
2023-01-25T12:57:41.821Z,2.35
2023-01-25T13:01:05.928Z,2.35
2023-01-25T13:04:29.721Z,2.31
2023-01-25T13:07:54.681Z,2.24
2023-01-25T13:11:19.397Z,2.13
2023-01-25T13:14:43.103Z,2.01
2023-01-25T13:18:06.953Z,1.89
2023-01-25T13:21:30.649Z,1.85
2023-01-25T13:24:54.288Z,1.82
2023-01-25T13:28:18.103Z,1.82
2023-01-25T13:31:51.689Z,1.88
2023-01-25T13:35:16.564Z,1.91
2023-01-25T13:38:40.243Z,1.92
2023-01-25T13:42:04.025Z,1.89
2023-01-25T13:45:27.859Z,1.87
2023-01-25T13:48:51.761Z,1.92
2023-01-25T13:52:15.512Z,1.97
2023-01-25T13:55:39.194Z,2.06
2023-01-25T13:59:03.568Z,2.06
2023-01-25T14:02:27.354Z,2.13
2023-01-25T14:05:51.183Z,2.22
2023-01-25T14:09:17.316Z,2.23
2023-01-25T14:12:41.188Z,2.22
2023-01-25T14:16:05.083Z,2.13
2023-01-25T14:19:30.003Z,2.03
2023-01-25T14:22:54.075Z,1.92
2023-01-25T14:26:17.832Z,1.96
2023-01-25T14:29:41.579Z,1.98
2023-01-25T14:33:12.867Z,1.95
2023-01-25T14:36:50.093Z,1.92
2023-01-25T14:40:33.899Z,1.87
2023-01-25T14:44:03.924Z,1.82
2023-01-25T14:47:58.309Z,1.83
2023-01-25T14:51:28.955Z,1.91
2023-01-25T14:55:12.802Z,2.01
2023-01-25T14:58:43.180Z,2.08
2023-01-25T15:02:28.858Z,2.15
2023-01-25T15:06:05.922Z,2.21
2023-01-25T15:09:45.874Z,2.23
2023-01-25T15:13:23.889Z,2.24
2023-01-25T15:17:02.815Z,2.14
2023-01-25T15:20:48.717Z,1.99
2023-01-25T15:24:42.393Z,1.88
2023-01-25T15:28:35.711Z,1.81
2023-01-25T15:32:27.901Z,1.75
2023-01-25T15:36:11.870Z,1.75
2023-01-25T15:39:48.741Z,1.79
2023-01-25T15:43:28.188Z,1.84
2023-01-25T15:47:04.657Z,1.90
2023-01-25T15:50:42.877Z,1.95
2023-01-25T15:54:19.697Z,2.00
2023-01-25T15:57:57.407Z,2.02
2023-01-25T16:01:33.771Z,2.04
2023-01-25T16:05:10.753Z,2.06
2023-01-25T16:08:47.914Z,2.09
2023-01-25T16:12:25.699Z,2.11
2023-01-25T16:16:02.640Z,2.13
2023-01-25T16:19:46.644Z,2.13
2023-01-25T16:23:40.651Z,2.14
2023-01-25T16:27:28.018Z,2.16
2023-01-25T16:31:07.719Z,2.17
2023-01-25T16:34:44.800Z,2.19
2023-01-25T16:38:21.653Z,2.21
2023-01-25T16:41:58.887Z,2.22
2023-01-25T16:45:35.669Z,2.20
2023-01-25T16:49:12.761Z,2.17
2023-01-25T16:52:49.745Z,2.11
2023-01-25T16:56:26.973Z,2.11
2023-01-25T17:00:03.620Z,2.13
2023-01-25T17:03:40.803Z,2.16
2023-01-25T17:07:18.713Z,2.18
2023-01-25T17:10:57.476Z,2.13
2023-01-25T17:14:41.822Z,2.01
2023-01-25T17:18:11.813Z,1.88
2023-01-25T17:22:03.648Z,1.76
2023-01-25T17:25:54.674Z,1.70
2023-01-25T17:29:45.579Z,1.61
2023-01-25T17:33:16.557Z,1.52
2023-01-25T17:37:00.544Z,1.45
2023-01-25T17:40:30.905Z,1.41
2023-01-25T17:44:14.546Z,1.40
2023-01-25T17:48:07.589Z,1.38
2023-01-25T17:51:58.556Z,1.37
2023-01-25T17:55:49.540Z,1.36
2023-01-25T17:59:40.527Z,1.35
2023-01-25T18:03:33.945Z,1.34
2023-01-25T18:07:25.535Z,1.37
2023-01-25T18:11:17.491Z,1.39
2023-01-25T18:15:08.973Z,1.45
2023-01-25T18:18:59.493Z,1.54
2023-01-25T18:22:50.488Z,1.61
2023-01-25T18:26:41.456Z,1.64
2023-01-25T18:30:32.887Z,1.69
2023-01-25T18:34:03.080Z,1.74
2023-01-25T18:37:50.468Z,1.79
2023-01-25T18:41:23.094Z,1.84
2023-01-25T18:45:06.598Z,1.87
2023-01-25T18:48:36.861Z,1.85
2023-01-25T18:52:20.552Z,1.85
2023-01-25T18:55:50.861Z,1.86
2023-01-25T18:59:34.508Z,1.83
2023-01-25T19:03:04.885Z,1.77
2023-01-25T19:06:48.420Z,1.74
2023-01-25T19:10:18.714Z,1.74
2023-01-25T19:14:05.710Z,1.77
2023-01-25T19:17:35.752Z,1.79
2023-01-25T19:21:19.400Z,1.80
2023-01-25T19:25:12.666Z,1.77
2023-01-25T19:29:05.419Z,1.76
2023-01-25T19:32:57.378Z,1.71
2023-01-25T19:36:52.675Z,1.66
2023-01-25T19:40:43.382Z,1.64
2023-01-25T19:44:34.370Z,1.60
2023-01-25T19:48:25.354Z,1.57
2023-01-25T19:52:24.385Z,1.53
2023-01-25T19:56:16.168Z,1.49
2023-01-25T20:00:07.580Z,1.50
2023-01-25T20:03:58.479Z,1.56
2023-01-25T20:07:49.334Z,1.61
2023-01-25T20:11:40.420Z,1.58
2023-01-25T20:15:31.384Z,1.57
2023-01-25T20:19:15.513Z,1.56
2023-01-25T20:22:52.394Z,1.55
2023-01-25T20:26:29.457Z,1.56
2023-01-25T20:30:06.413Z,1.58
2023-01-25T20:33:43.491Z,1.61
2023-01-25T20:37:21.266Z,1.59
2023-01-25T20:40:58.457Z,1.60
2023-01-25T20:44:35.419Z,1.64
2023-01-25T20:48:12.406Z,1.71
2023-01-25T20:51:50.620Z,1.76
2023-01-25T20:55:34.700Z,1.82
2023-01-25T20:59:11.267Z,1.86
2023-01-25T21:02:49.391Z,1.85
2023-01-25T21:06:27.410Z,1.85
2023-01-25T21:10:06.406Z,1.88
2023-01-25T21:13:47.719Z,1.92
2023-01-25T21:17:28.571Z,1.95
2023-01-25T21:21:05.284Z,1.99
2023-01-25T21:24:56.225Z,2.03
2023-01-25T21:28:47.287Z,2.07
2023-01-25T21:32:38.303Z,2.09
2023-01-25T21:36:29.215Z,2.11
2023-01-25T21:40:21.164Z,2.13
2023-01-25T21:44:30.187Z,2.14
2023-01-25T21:48:41.166Z,2.17
2023-01-25T21:52:36.231Z,2.17
2023-01-25T21:56:27.203Z,2.17
2023-01-25T22:00:19.192Z,2.18
2023-01-25T22:04:10.254Z,2.18
2023-01-25T22:08:03.281Z,2.19
2023-01-25T22:11:49.818Z,2.19
2023-01-25T22:15:26.239Z,2.19
2023-01-25T22:19:05.288Z,2.17
2023-01-25T22:22:42.441Z,2.17
2023-01-25T22:26:33.464Z,2.17
2023-01-25T22:30:27.612Z,2.15
2023-01-25T22:34:25.295Z,2.15
2023-01-25T22:38:16.207Z,2.13
2023-01-25T22:41:46.825Z,2.11
2023-01-25T22:45:30.200Z,2.09
2023-01-25T22:49:02.295Z,2.07
2023-01-25T22:52:55.088Z,2.06
2023-01-25T22:56:46.082Z,2.05
2023-01-25T23:00:37.140Z,2.02
2023-01-25T23:04:30.099Z,2.00
2023-01-25T23:08:21.134Z,1.99
2023-01-25T23:12:15.052Z,1.99
2023-01-25T23:16:08.369Z,1.99
2023-01-25T23:19:59.072Z,2.00
2023-01-25T23:23:53.073Z,2.01
2023-01-25T23:27:44.038Z,2.00
2023-01-25T23:31:35.157Z,2.01
2023-01-25T23:35:26.010Z,2.01
2023-01-25T23:39:17.023Z,2.01
2023-01-25T23:43:08.042Z,1.98
2023-01-25T23:46:59.167Z,1.95
2023-01-25T23:50:43.124Z,1.93
2023-01-25T23:54:23.065Z,1.92
2023-01-25T23:58:01.155Z,1.92
